KISW

Alexander Field South Wood County Airport

Wisconsin Rapids, Wisconsin, USA
METAR KISW 151554Z AUTO 00000KT 8SM CLR M03/M06 A3023 RMK AO2 SLP256 I1000 T10331056 TSNO
Observed Flight Rules
Dec-15 @ 15:54 UTC (15 minutes ago) Visual Flight Rules
Visibility Clouds
8 miles
  • Clear skies
Temperatures Readings
Current -3°C / 27°F
Dewpoint -6°C / 21°F
Humidity 80%
Altimeter 30.23" Hg
Pressure 1025.6 hPa
Elevation 307
METAR KISW 151554Z AUTO 00000KT 8SM CLR M03/M06 A3023 RMK AO2 SLP256 I1000 T10331056 TSNO
Observed Flight Rules
Dec-15 @ 15:54 UTC
(15 minutes ago)
VFR
Clouds
  • Clear skies
Temperature Dewpoint
-3°C / 27°F -6°C / 21°F
Humidity Altimeter Pressure
80% 30.23" Hg 1025.6 hPa